Time;durP1;ratioP1;P1;durP2;ratioP2;P2;SDS_P1;SDS_P2;PMS_P1;PMS_P2;Temp;Humidity;BMP_temperature;BMP_pressure;BME280_temperature;BME280_humidity;BME280_pressure;Samples;Min_cycle;Max_cycle;Signal;HPM_P1;HPM_P2
2022/03/27 00:00:34;;;;;;;19.25;10.85;;;;;;;12.41;38.00;100845.03;4407172;32;33785;-62
2022/03/27 00:03:02;;;;;;;26.55;12.37;;;;;;;12.36;38.14;100842.16;4407873;32;32642;-61
2022/03/27 00:05:29;;;;;;;25.83;10.43;;;;;;;12.56;38.13;100843.25;4394528;32;34147;-62
2022/03/27 00:07:57;;;;;;;25.33;10.85;;;;;;;13.10;36.94;100841.75;4408134;32;33614;-60
2022/03/27 00:10:25;;;;;;;25.02;10.93;;;;;;;12.79;37.33;100842.75;4405637;32;33956;-62
2022/03/27 00:12:52;;;;;;;23.00;10.32;;;;;;;13.38;36.48;100840.56;4407880;32;33949;-60
2022/03/27 00:15:20;;;;;;;22.27;11.18;;;;;;;13.45;36.45;100842.66;4407945;32;34834;-62
2022/03/27 00:17:47;;;;;;;22.05;10.20;;;;;;;13.54;35.98;100837.94;4407877;32;33807;-62
2022/03/27 00:20:15;;;;;;;18.60;10.02;;;;;;;12.73;37.66;100839.84;4406786;32;33751;-60
2022/03/27 00:22:42;;;;;;;22.58;10.93;;;;;;;12.34;38.38;100847.31;4405714;32;33977;-60
2022/03/27 00:25:10;;;;;;;22.00;10.55;;;;;;;12.36;38.81;100843.09;4406578;32;34848;-62
2022/03/27 00:27:37;;;;;;;24.00;10.73;;;;;;;12.21;38.92;100842.25;4406775;32;34473;-62
2022/03/27 00:30:08;;;;;;;27.08;10.43;;;;;;;12.70;38.07;100843.97;4405180;32;34536;-60
2022/03/27 00:32:36;;;;;;;22.23;10.75;;;;;;;12.31;38.79;100846.25;4405597;32;33948;-60
2022/03/27 00:35:06;;;;;;;23.77;11.43;;;;;;;12.97;37.54;100845.41;4407316;32;34023;-62
2022/03/27 00:37:34;;;;;;;23.60;11.30;;;;;;;13.42;36.50;100845.09;4405914;32;33360;-60
2022/03/27 00:40:03;;;;;;;22.70;10.48;;;;;;;12.96;37.38;100853.13;4392918;32;34020;-62
2022/03/27 00:42:31;;;;;;;28.33;11.48;;;;;;;12.95;37.34;100849.66;4404563;32;33894;-60
2022/03/27 00:44:58;;;;;;;22.80;10.70;;;;;;;12.29;38.87;100851.34;4407280;32;34740;-62
2022/03/27 00:47:26;;;;;;;23.40;11.20;;;;;;;12.39;38.70;100851.03;4398755;32;33202;-61
2022/03/27 00:49:53;;;;;;;22.52;10.77;;;;;;;11.71;40.39;100855.88;4406801;32;33992;-60
2022/03/27 00:52:20;;;;;;;27.33;11.00;;;;;;;11.59;40.75;100859.53;4405175;32;33745;-62
2022/03/27 00:54:48;;;;;;;24.05;10.77;;;;;;;12.67;38.55;100860.31;4405973;32;34133;-61
2022/03/27 00:57:15;;;;;;;25.65;11.63;;;;;;;13.07;37.67;100857.19;4405922;32;33440;-62
2022/03/27 00:59:43;;;;;;;27.83;11.27;;;;;;;12.24;39.04;100857.09;4395342;32;32365;-61
2022/03/27 01:02:12;;;;;;;17.83;9.65;;;;;;;11.92;39.93;100866.59;4405158;32;33750;-60
2022/03/27 01:04:44;;;;;;;23.83;10.90;;;;;;;11.39;40.93;100858.38;4405689;32;34938;-60
2022/03/27 01:07:13;;;;;;;23.17;11.93;;;;;;;11.30;41.25;100862.12;4400741;32;34343;-62
2022/03/27 01:09:40;;;;;;;23.58;9.93;;;;;;;11.53;40.77;100854.00;4405513;32;34020;-60
2022/03/27 01:12:22;;;;;;;22.87;11.30;;;;;;;12.45;38.86;100852.19;4403857;32;33968;-62
2022/03/27 01:14:51;;;;;;;24.33;11.05;;;;;;;11.89;39.98;100858.59;4406064;32;34198;-60
2022/03/27 01:17:22;;;;;;;24.50;11.48;;;;;;;12.13;39.42;100854.81;4405688;32;33937;-61
2022/03/27 01:19:55;;;;;;;23.15;10.63;;;;;;;11.73;40.39;100867.22;4405166;32;34033;-61
2022/03/27 01:22:23;;;;;;;23.10;10.88;;;;;;;11.46;40.90;100859.63;4404035;32;33916;-61
2022/03/27 01:24:52;;;;;;;24.20;11.12;;;;;;;11.31;41.50;100861.31;4401586;32;33961;-62
2022/03/27 01:27:20;;;;;;;20.40;11.20;;;;;;;10.89;42.47;100863.16;4403072;32;33414;-60
2022/03/27 01:29:48;;;;;;;22.35;11.52;;;;;;;11.14;41.75;100858.62;4405742;32;33758;-62
2022/03/27 01:32:16;;;;;;;28.87;11.45;;;;;;;11.33;41.48;100870.09;4403959;32;33925;-62
2022/03/27 01:34:45;;;;;;;26.65;11.48;;;;;;;11.39;41.22;100863.56;4404519;32;34358;-61
2022/03/27 01:37:14;;;;;;;26.25;12.40;;;;;;;11.15;41.68;100864.72;4404291;32;33749;-62
2022/03/27 01:39:42;;;;;;;23.45;10.98;;;;;;;11.27;41.47;100864.56;4406208;32;33626;-61
2022/03/27 01:42:10;;;;;;;28.75;11.93;;;;;;;11.37;41.36;100866.88;4404387;32;33942;-62
2022/03/27 01:44:38;;;;;;;25.73;11.90;;;;;;;11.25;41.43;100872.22;4405368;32;34094;-61
2022/03/27 01:47:05;;;;;;;24.35;11.45;;;;;;;11.80;40.16;100874.53;4404847;32;34341;-61
2022/03/27 01:49:33;;;;;;;23.05;10.55;;;;;;;12.10;39.98;100880.59;4398436;32;34543;-60
2022/03/27 01:52:01;;;;;;;19.37;10.57;;;;;;;11.48;40.95;100873.59;4407937;32;34007;-62
2022/03/27 01:54:28;;;;;;;22.27;10.60;;;;;;;11.68;41.16;100884.22;4403633;32;34324;-62
2022/03/27 01:56:56;;;;;;;22.67;11.20;;;;;;;11.10;41.83;100890.34;4392084;32;31859;-62
2022/03/27 01:59:23;;;;;;;25.92;11.18;;;;;;;10.90;42.37;100883.09;4408501;32;33822;-61
2022/03/27 02:01:51;;;;;;;24.65;11.85;;;;;;;10.87;42.34;100882.91;4393372;32;33885;-61
2022/03/27 02:04:19;;;;;;;23.33;10.57;;;;;;;10.87;42.37;100882.91;4405764;32;34207;-61
2022/03/27 02:06:47;;;;;;;24.05;11.63;;;;;;;10.71;42.82;100886.25;4407716;32;33660;-60
2022/03/27 02:09:14;;;;;;;23.58;10.82;;;;;;;10.60;43.00;100890.75;4406304;32;33765;-63
2022/03/27 02:11:43;;;;;;;22.95;10.70;;;;;;;10.76;42.80;100879.66;4406332;32;33790;-62
2022/03/27 02:14:11;;;;;;;22.75;10.95;;;;;;;10.80;42.45;100884.25;4406263;32;34856;-61
2022/03/27 02:16:39;;;;;;;24.92;11.75;;;;;;;10.63;42.81;100883.19;4408338;32;33771;-62
2022/03/27 02:19:10;;;;;;;27.92;11.60;;;;;;;10.45;43.39;100887.22;4403482;32;33571;-61
2022/03/27 02:21:39;;;;;;;22.45;11.43;;;;;;;10.56;43.08;100881.91;4407029;32;33997;-62
2022/03/27 02:24:08;;;;;;;22.20;11.52;;;;;;;11.53;41.38;100890.31;4406021;32;33833;-60
2022/03/27 02:26:35;;;;;;;26.65;11.98;;;;;;;11.36;41.75;100897.13;4396062;32;34459;-60
2022/03/27 02:29:03;;;;;;;24.05;11.55;;;;;;;11.50;41.55;100889.25;4394860;32;33802;-60
2022/03/27 02:31:31;;;;;;;25.83;11.75;;;;;;;11.05;42.20;100893.47;4381067;32;32518;-61
2022/03/27 02:33:58;;;;;;;25.58;12.65;;;;;;;11.69;41.21;100897.28;4407031;32;34708;-61
2022/03/27 02:36:26;;;;;;;25.62;10.38;;;;;;;11.17;42.22;100895.13;4395749;32;33631;-62
2022/03/27 02:38:53;;;;;;;31.55;11.52;;;;;;;11.53;41.98;100898.13;4407816;32;33934;-60
2022/03/27 02:41:21;;;;;;;27.60;11.68;;;;;;;11.30;42.61;100901.03;4406513;32;34854;-61
2022/03/27 02:43:50;;;;;;;25.62;11.45;;;;;;;11.17;42.86;100907.19;4406753;32;34308;-61
2022/03/27 02:46:17;;;;;;;27.35;11.50;;;;;;;11.00;43.24;100909.66;4410439;32;32129;-60
2022/03/27 02:48:45;;;;;;;26.80;11.25;;;;;;;11.00;43.63;100916.53;4403663;32;33900;-60
2022/03/27 02:51:12;;;;;;;25.95;11.93;;;;;;;11.09;43.69;100917.12;4407565;32;33984;-61
2022/03/27 02:53:40;;;;;;;25.60;12.73;;;;;;;10.85;43.86;100915.59;4405845;32;34148;-62
2022/03/27 02:56:08;;;;;;;23.15;11.38;;;;;;;10.42;44.83;100925.09;4405189;32;33675;-62
2022/03/27 02:58:36;;;;;;;24.50;12.32;;;;;;;10.86;43.74;100915.72;4404603;32;34748;-61
2022/03/27 03:01:04;;;;;;;23.23;10.90;;;;;;;10.89;43.45;100917.59;4407642;32;33822;-62
2022/03/27 03:03:32;;;;;;;27.80;11.93;;;;;;;10.55;44.54;100913.81;4407574;32;33153;-63
2022/03/27 03:06:01;;;;;;;26.25;11.60;;;;;;;11.53;42.54;100910.16;4406024;32;34339;-61
2022/03/27 03:08:29;;;;;;;25.08;11.88;;;;;;;10.92;43.92;100904.81;4380950;32;32502;-61
2022/03/27 03:10:56;;;;;;;25.17;11.02;;;;;;;10.85;43.91;100905.25;4407693;32;34510;-62
2022/03/27 03:13:24;;;;;;;25.88;10.88;;;;;;;10.80;44.10;100913.62;4404521;32;34078;-62
2022/03/27 03:15:52;;;;;;;27.58;11.75;;;;;;;11.46;42.49;100923.59;4406197;32;33924;-61
2022/03/27 03:18:20;;;;;;;26.85;12.25;;;;;;;10.64;44.39;100931.59;4406883;32;34812;-61
2022/03/27 03:20:47;;;;;;;23.50;11.88;;;;;;;11.40;43.27;100924.13;4393443;32;33798;-61
2022/03/27 03:23:15;;;;;;;28.30;11.98;;;;;;;10.84;44.25;100925.09;4406517;32;34789;-60
2022/03/27 03:25:42;;;;;;;22.60;11.25;;;;;;;11.12;43.45;100943.22;4404671;32;33500;-62
2022/03/27 03:28:31;;;;;;;25.37;12.32;;;;;;;11.47;42.38;100947.03;4406884;32;33920;-61
2022/03/27 03:30:59;;;;;;;24.77;12.13;;;;;;;10.91;43.30;100944.50;4407320;32;33793;-61
2022/03/27 03:33:26;;;;;;;26.35;12.73;;;;;;;11.20;42.69;100941.09;4407868;32;34840;-61
2022/03/27 03:35:54;;;;;;;27.02;12.02;;;;;;;11.00;43.39;100958.03;4406318;32;33602;-61
2022/03/27 03:38:25;;;;;;;28.08;12.18;;;;;;;10.75;43.79;100961.69;4407319;32;34052;-61
2022/03/27 03:40:52;;;;;;;22.40;11.70;;;;;;;10.85;43.42;100959.69;4393358;32;34524;-61
2022/03/27 03:43:20;;;;;;;22.73;11.60;;;;;;;10.85;43.55;100960.56;4407340;32;32487;-61
2022/03/27 03:45:48;;;;;;;28.17;11.93;;;;;;;10.51;44.33;100954.97;4408654;32;34389;-61
2022/03/27 03:48:16;;;;;;;25.70;12.00;;;;;;;10.84;44.15;100960.50;4408062;32;33820;-61
2022/03/27 03:50:43;;;;;;;25.15;12.55;;;;;;;11.60;42.16;100965.13;4408258;32;33802;-61
2022/03/27 03:53:11;;;;;;;25.98;12.35;;;;;;;11.67;42.34;100962.91;4408196;32;34950;-61
2022/03/27 03:55:38;;;;;;;27.33;12.25;;;;;;;11.83;41.76;100957.78;4407694;32;33682;-61
2022/03/27 03:58:06;;;;;;;25.65;11.73;;;;;;;10.71;44.05;100975.25;4408446;32;33978;-61
2022/03/27 04:00:33;;;;;;;22.80;11.77;;;;;;;10.97;43.77;100970.78;4405542;32;33527;-61
2022/03/27 04:03:02;;;;;;;29.25;12.37;;;;;;;10.86;44.12;100979.63;4393291;32;32549;-61
2022/03/27 04:05:30;;;;;;;26.05;12.20;;;;;;;11.19;43.90;100976.50;4406407;32;34329;-61
2022/03/27 04:07:57;;;;;;;24.30;11.77;;;;;;;11.12;43.81;100978.63;4406700;32;32549;-61
2022/03/27 04:10:25;;;;;;;25.45;12.35;;;;;;;11.08;44.08;100974.06;4392194;32;33515;-61
2022/03/27 04:12:53;;;;;;;27.10;11.07;;;;;;;11.23;43.34;100984.47;4406452;32;34989;-61
2022/03/27 04:15:20;;;;;;;26.00;11.57;;;;;;;11.23;43.47;100979.28;4406184;32;34266;-61
2022/03/27 04:18:01;;;;;;;24.98;12.63;;;;;;;10.29;45.63;100995.00;4392748;32;34674;-61
2022/03/27 04:20:28;;;;;;;30.48;12.13;;;;;;;10.24;45.71;100999.00;4404876;32;32465;-61
2022/03/27 04:22:56;;;;;;;27.40;12.23;;;;;;;10.58;45.32;101001.19;4408045;32;33955;-61
2022/03/27 04:25:24;;;;;;;26.33;12.02;;;;;;;10.23;46.20;101004.94;4407932;32;34475;-61
2022/03/27 04:27:51;;;;;;;24.77;11.48;;;;;;;10.82;44.87;101013.13;4407237;32;36408;-61
2022/03/27 04:30:20;;;;;;;30.80;13.25;;;;;;;10.47;45.52;101009.97;4407625;32;33742;-61
2022/03/27 04:32:48;;;;;;;25.17;12.88;;;;;;;10.63;45.52;101017.94;4407188;32;34172;-61
2022/03/27 04:35:15;;;;;;;28.60;13.80;;;;;;;11.17;44.66;101019.59;4406337;32;33776;-61
2022/03/27 04:37:44;;;;;;;25.27;12.00;;;;;;;10.83;45.68;101032.16;4407581;32;34037;-61
2022/03/27 04:40:13;;;;;;;29.87;13.13;;;;;;;9.94;48.23;101032.41;4407468;32;33936;-61
2022/03/27 04:42:41;;;;;;;26.87;12.73;;;;;;;9.97;48.37;101040.37;4407654;32;34631;-61
2022/03/27 04:45:10;;;;;;;28.25;13.18;;;;;;;10.35;47.25;101047.25;4407286;32;33965;-61
2022/03/27 04:47:39;;;;;;;26.23;12.68;;;;;;;10.29;47.75;101051.97;4407414;32;33965;-61
2022/03/27 04:50:08;;;;;;;26.35;13.15;;;;;;;10.49;47.07;101070.53;4406575;32;34527;-61
2022/03/27 04:52:36;;;;;;;26.33;13.07;;;;;;;10.44;47.51;101062.47;4407317;32;34597;-61
2022/03/27 04:55:05;;;;;;;24.80;12.60;;;;;;;10.27;48.08;101063.91;4407354;32;33474;-61
2022/03/27 04:57:38;;;;;;;30.70;12.88;;;;;;;10.69;47.22;101069.25;4407078;32;33832;-61
2022/03/27 05:00:11;;;;;;;29.52;13.25;;;;;;;10.54;47.07;101077.81;4393497;32;32457;-61
2022/03/27 05:02:39;;;;;;;24.52;12.52;;;;;;;10.53;47.01;101082.91;4406830;32;34156;-61
2022/03/27 05:05:10;;;;;;;30.05;12.57;;;;;;;10.61;46.60;101086.91;4405986;32;33687;-61
2022/03/27 05:07:39;;;;;;;26.65;12.77;;;;;;;11.10;45.51;101084.84;4406700;32;33859;-61
2022/03/27 05:10:09;;;;;;;25.10;12.32;;;;;;;11.05;45.73;101085.34;4406420;32;34717;-61
2022/03/27 05:12:36;;;;;;;22.90;11.93;;;;;;;11.04;45.77;101083.56;4407587;32;33665;-61
2022/03/27 05:15:05;;;;;;;26.55;13.43;;;;;;;11.90;43.84;101089.81;4407439;32;34443;-61
2022/03/27 05:17:32;;;;;;;30.52;12.60;;;;;;;11.94;43.95;101096.97;4407591;32;33749;-61
2022/03/27 05:20:02;;;;;;;26.48;13.23;;;;;;;11.94;43.73;101102.16;4402886;32;34016;-61
2022/03/27 05:22:30;;;;;;;27.65;13.10;;;;;;;12.36;42.37;101092.53;4390717;32;34153;-61
2022/03/27 05:24:57;;;;;;;27.23;12.18;;;;;;;11.96;43.99;101091.88;4401409;32;34448;-61
2022/03/27 05:27:25;;;;;;;24.45;12.18;;;;;;;12.09;43.82;101096.06;4407077;32;34611;-62
2022/03/27 05:29:52;;;;;;;27.40;13.52;;;;;;;12.36;43.33;101102.91;4395214;32;32124;-61
2022/03/27 05:32:20;;;;;;;25.92;12.68;;;;;;;12.42;42.97;101106.66;4408990;32;34074;-61
2022/03/27 05:34:47;;;;;;;25.55;12.50;;;;;;;12.41;43.06;101100.56;4408472;32;34314;-61
2022/03/27 05:37:15;;;;;;;29.58;13.15;;;;;;;12.57;42.74;101112.75;4394555;32;34058;-61
2022/03/27 05:39:42;;;;;;;20.75;10.75;;;;;;;11.48;46.11;101120.09;4408727;32;33661;-61
2022/03/27 05:42:10;;;;;;;22.10;10.90;;;;;;;11.25;46.18;101128.13;4409651;32;34903;-61
2022/03/27 05:44:37;;;;;;;20.15;10.43;;;;;;;11.53;45.58;101142.03;4407073;32;33095;-61
2022/03/27 05:47:05;;;;;;;21.10;10.10;;;;;;;11.18;46.50;101140.72;4409467;32;33998;-61
2022/03/27 05:49:32;;;;;;;17.10;9.40;;;;;;;11.79;45.22;101142.75;4408874;32;34308;-61
2022/03/27 05:52:00;;;;;;;16.75;8.60;;;;;;;12.54;43.18;101138.56;4409043;32;34343;-61
2022/03/27 05:54:27;;;;;;;19.45;9.40;;;;;;;12.77;42.71;101135.59;4408565;32;33558;-61
2022/03/27 05:56:57;;;;;;;16.73;8.68;;;;;;;12.72;42.70;101143.94;4395972;32;34486;-61
2022/03/27 05:59:25;;;;;;;19.42;9.00;;;;;;;12.07;44.30;101144.44;4409232;32;34763;-61
2022/03/27 06:01:52;;;;;;;15.05;8.75;;;;;;;12.17;44.01;101152.00;4409156;32;34862;-62
2022/03/27 06:04:20;;;;;;;19.60;8.85;;;;;;;12.17;43.94;101154.59;4408156;32;33592;-61
2022/03/27 06:06:48;;;;;;;17.62;8.77;;;;;;;12.38;43.60;101158.47;4395122;32;34646;-61
2022/03/27 06:09:21;;;;;;;20.20;9.23;;;;;;;11.98;44.48;101176.84;4408963;32;33675;-61
2022/03/27 06:11:49;;;;;;;18.73;8.57;;;;;;;11.57;45.43;101177.75;4408888;32;35002;-61
2022/03/27 06:14:16;;;;;;;17.37;8.98;;;;;;;11.93;44.91;101182.56;4407951;32;33699;-61
2022/03/27 06:16:44;;;;;;;16.48;8.77;;;;;;;12.10;44.40;101181.00;4407145;32;34684;-61
2022/03/27 06:19:12;;;;;;;16.33;9.23;;;;;;;12.98;42.64;101184.44;4408079;32;34810;-61
2022/03/27 06:21:39;;;;;;;18.23;9.05;;;;;;;12.01;45.06;101183.91;4404178;32;34252;-61
2022/03/27 06:24:07;;;;;;;17.17;9.25;;;;;;;12.21;44.58;101187.75;4408797;32;33817;-61
2022/03/27 06:26:34;;;;;;;17.62;8.73;;;;;;;12.11;45.08;101198.34;4405459;32;34705;-61
2022/03/27 06:29:02;;;;;;;15.48;8.70;;;;;;;12.96;43.50;101189.56;4408363;32;34704;-61
2022/03/27 06:31:29;;;;;;;21.23;8.55;;;;;;;12.47;44.41;101198.78;4408414;32;34172;-61
2022/03/27 06:33:57;;;;;;;16.42;9.32;;;;;;;12.66;43.80;101190.38;4406133;32;33834;-61
2022/03/27 06:36:24;;;;;;;15.55;8.18;;;;;;;13.20;42.85;101190.88;4391569;32;34031;-61
2022/03/27 06:38:52;;;;;;;17.90;8.90;;;;;;;12.27;44.41;101195.91;4404440;32;33881;-61
2022/03/27 06:41:19;;;;;;;15.48;9.55;;;;;;;12.25;44.92;101196.63;4408351;32;34208;-61
2022/03/27 06:43:47;;;;;;;15.15;8.38;;;;;;;12.54;44.37;101194.03;4407851;32;34468;-61
2022/03/27 06:46:17;;;;;;;17.20;9.25;;;;;;;12.34;44.61;101212.75;4396367;32;34749;-61
2022/03/27 06:48:44;;;;;;;13.52;8.02;;;;;;;12.08;45.86;101213.78;4391014;32;34746;-61
2022/03/27 06:51:13;;;;;;;15.88;7.80;;;;;;;12.89;43.94;101204.72;4401868;32;33862;-61
2022/03/27 06:53:42;;;;;;;15.98;8.48;;;;;;;13.20;43.15;101199.56;4408121;32;34342;-61
2022/03/27 06:56:10;;;;;;;15.88;8.65;;;;;;;13.41;42.91;101199.91;4407688;32;33865;-62
2022/03/27 06:58:37;;;;;;;13.70;8.55;;;;;;;13.85;41.79;101201.44;4406671;32;33827;-61
2022/03/27 07:03:51;;;;;;;16.35;8.38;;;;;;;12.08;45.63;101205.97;4406741;32;33594;-61
2022/03/27 07:06:19;;;;;;;15.45;8.82;;;;;;;12.52;44.45;101205.16;4400812;32;33971;-62
2022/03/27 07:08:47;;;;;;;14.00;8.40;;;;;;;13.16;43.37;101211.50;4401659;32;32489;-61
2022/03/27 07:11:15;;;;;;;15.13;7.82;;;;;;;13.03;43.65;101219.41;4407866;32;34226;-61
2022/03/27 07:13:42;;;;;;;14.23;7.95;;;;;;;13.68;42.37;101210.94;4410512;32;33601;-62
2022/03/27 07:16:10;;;;;;;13.77;7.95;;;;;;;12.82;44.60;101218.16;4407070;32;34442;-62
2022/03/27 07:18:38;;;;;;;15.65;8.00;;;;;;;12.56;45.13;101215.81;4405189;32;34068;-61
2022/03/27 07:21:06;;;;;;;22.25;8.45;;;;;;;12.63;44.96;101206.66;4406617;32;32947;-61
2022/03/27 07:23:34;;;;;;;19.30;7.53;;;;;;;12.84;44.73;101214.84;4408268;32;34386;-61
2022/03/27 07:26:01;;;;;;;18.05;7.90;;;;;;;13.44;44.10;101209.56;4408136;32;33315;-62
2022/03/27 07:28:31;;;;;;;13.45;7.07;;;;;;;12.68;45.18;101214.75;4395594;32;33710;-61
2022/03/27 07:30:59;;;;;;;14.18;7.20;;;;;;;12.77;44.63;101212.72;4409004;32;34120;-61
2022/03/27 07:33:27;;;;;;;13.73;7.30;;;;;;;13.95;42.32;101221.94;4408008;32;34477;-61
2022/03/27 07:35:56;;;;;;;13.62;6.95;;;;;;;14.00;42.53;101226.50;4408224;32;33887;-61
2022/03/27 07:38:23;;;;;;;15.23;7.95;;;;;;;14.35;41.50;101224.06;4408892;32;33849;-61
2022/03/27 07:40:50;;;;;;;16.02;7.12;;;;;;;13.82;42.16;101226.44;4408257;32;34116;-60
2022/03/27 07:43:18;;;;;;;15.25;7.18;;;;;;;13.83;42.83;101221.31;4409140;32;33430;-61
2022/03/27 07:45:46;;;;;;;14.43;8.13;;;;;;;14.24;41.89;101235.66;4406929;32;32600;-61
2022/03/27 07:48:13;;;;;;;13.93;7.65;;;;;;;14.73;40.77;101233.00;4407925;32;33810;-61
2022/03/27 07:50:41;;;;;;;14.40;8.18;;;;;;;13.64;42.29;101232.41;4407891;32;34335;-60
2022/03/27 07:53:08;;;;;;;16.08;8.45;;;;;;;13.57;43.59;101236.38;4411656;32;33489;-61
2022/03/27 07:55:37;;;;;;;16.00;7.82;;;;;;;13.87;42.49;101236.28;4407277;32;34630;-61
2022/03/27 07:58:05;;;;;;;14.60;7.75;;;;;;;14.81;41.08;101232.50;4408398;32;33770;-61
2022/03/27 08:00:32;;;;;;;18.58;8.25;;;;;;;14.64;41.48;101229.94;4406649;32;33888;-61
2022/03/27 08:03:00;;;;;;;14.38;7.70;;;;;;;14.54;41.72;101232.84;4409060;32;33438;-62
2022/03/27 08:05:28;;;;;;;16.45;7.93;;;;;;;14.89;41.27;101229.47;4408009;32;34073;-61
2022/03/27 08:07:55;;;;;;;15.52;8.30;;;;;;;14.68;41.96;101231.88;4407396;32;33955;-61
2022/03/27 08:10:23;;;;;;;14.25;8.05;;;;;;;14.02;42.13;101235.31;4406271;32;33938;-61
2022/03/27 08:12:51;;;;;;;13.50;7.28;;;;;;;15.08;40.95;101226.03;4403754;32;33580;-61
2022/03/27 08:15:21;;;;;;;14.32;7.07;;;;;;;14.63;42.03;101228.12;4394917;32;33468;-61
2022/03/27 08:17:53;;;;;;;12.80;7.95;;;;;;;14.88;42.12;101224.16;4404831;32;34684;-61
2022/03/27 08:20:27;;;;;;;15.57;7.97;;;;;;;14.53;42.27;101225.84;4407822;32;35499;-61
2022/03/27 08:22:58;;;;;;;15.50;7.10;;;;;;;14.54;42.18;101225.00;4410349;32;33888;-61
2022/03/27 08:28:20;;;;;;;14.15;7.75;;;;;;;15.67;40.39;101226.25;4411966;32;34064;-61
2022/03/27 08:30:50;;;;;;;13.75;7.53;;;;;;;16.12;39.25;101226.59;4409880;32;32865;-61
2022/03/27 08:33:20;;;;;;;16.33;8.60;;;;;;;16.22;38.67;101215.69;4410926;32;32793;-61
2022/03/27 08:35:47;;;;;;;16.60;8.90;;;;;;;15.94;38.43;101221.44;4409833;32;33961;-61
2022/03/27 08:38:16;;;;;;;12.98;8.20;;;;;;;16.78;37.20;101215.50;4408793;32;33968;-61
2022/03/27 08:40:53;;;;;;;14.73;8.05;;;;;;;17.10;37.76;101216.87;4406172;32;35594;-61
2022/03/27 08:43:21;;;;;;;14.50;9.32;;;;;;;17.13;37.48;101214.34;4407260;32;33655;-60
2022/03/27 08:45:49;;;;;;;15.13;7.95;;;;;;;16.63;39.06;101215.72;4407851;32;34024;-61
2022/03/27 08:48:17;;;;;;;12.73;8.25;;;;;;;17.61;36.23;101216.25;4403651;32;32243;-62
2022/03/27 08:50:59;;;;;;;15.90;8.55;;;;;;;16.63;38.42;101227.09;4406511;32;34139;-61
2022/03/27 08:53:34;;;;;;;14.35;8.82;;;;;;;18.30;34.67;101220.59;4403732;32;32517;-61
2022/03/27 08:56:07;;;;;;;;;;;;;;;17.24;36.20;101212.19;4396494;32;33852;-61
2022/03/27 08:58:39;;;;;;;17.45;9.18;;;;;;;16.19;38.66;101222.53;4413387;32;34213;-61
2022/03/27 09:01:07;;;;;;;19.30;9.60;;;;;;;16.22;39.63;101228.78;4410167;32;34336;-61
2022/03/27 09:03:36;;;;;;;14.73;8.43;;;;;;;15.38;40.13;101233.59;4408113;32;34439;-61
2022/03/27 09:06:08;;;;;;;20.08;8.73;;;;;;;15.65;39.92;101228.78;4389835;32;31711;-61
2022/03/27 09:08:37;;;;;;;17.03;8.33;;;;;;;15.37;40.22;101231.78;4413877;32;34333;-61
2022/03/27 09:11:06;;;;;;;16.48;8.20;;;;;;;16.10;39.26;101230.84;4410896;32;33928;-61
2022/03/27 09:13:33;;;;;;;14.23;8.48;;;;;;;16.20;39.33;101230.44;4416647;32;33395;-61
2022/03/27 09:16:05;;;;;;;12.93;7.93;;;;;;;15.84;39.23;101245.31;4411590;32;33938;-60
2022/03/27 09:18:48;;;;;;;15.57;8.88;;;;;;;16.18;39.17;101231.19;4412119;32;34819;-60
2022/03/27 09:21:20;;;;;;;17.02;8.32;;;;;;;15.79;39.32;101236.41;4407790;32;34164;-61
2022/03/27 09:23:55;;;;;;;15.98;8.75;;;;;;;16.54;37.87;101234.53;4409116;32;34015;-61
2022/03/27 09:26:23;;;;;;;16.02;7.90;;;;;;;16.82;37.62;101238.38;4396573;32;33743;-61
2022/03/27 09:28:53;;;;;;;15.38;8.50;;;;;;;17.22;37.21;101230.44;4411373;32;33804;-61
2022/03/27 09:31:26;;;;;;;15.73;8.65;;;;;;;16.91;37.57;101228.31;4412525;32;34755;-60
2022/03/27 09:34:00;;;;;;;16.23;8.73;;;;;;;16.79;36.91;101227.75;4407865;32;33691;-60
2022/03/27 09:36:33;;;;;;;15.80;8.40;;;;;;;16.64;37.79;101223.63;4412376;32;33672;-60
2022/03/27 09:39:05;;;;;;;15.55;9.20;;;;;;;16.98;36.71;101225.12;4411027;32;33858;-60
2022/03/27 09:42:07;;;;;;;13.25;8.48;;;;;;;16.51;37.06;101221.31;4411799;32;34667;-60
2022/03/27 09:44:37;;;;;;;14.00;8.63;;;;;;;16.68;36.73;101217.72;4385813;32;34568;-60
2022/03/27 09:47:10;;;;;;;13.93;8.85;;;;;;;16.10;38.37;101228.25;4406184;32;34713;-60
2022/03/27 09:49:40;;;;;;;13.85;8.70;;;;;;;16.56;37.41;101219.81;4410938;32;34976;-60
2022/03/27 09:52:10;;;;;;;14.15;8.52;;;;;;;17.26;36.96;101228.84;4411205;32;34237;-60
2022/03/27 09:54:47;;;;;;;14.87;8.57;;;;;;;17.59;35.55;101223.16;4411870;32;31831;-60
2022/03/27 09:57:26;;;;;;;13.90;8.10;;;;;;;17.03;35.96;101218.31;4401570;32;33941;-61
2022/03/27 09:59:56;;;;;;;14.45;8.45;;;;;;;16.92;36.34;101218.72;4410303;32;34700;-61
2022/03/27 10:02:28;;;;;;;14.40;8.05;;;;;;;17.93;34.78;101222.78;4411214;32;34171;-60
2022/03/27 10:04:57;;;;;;;15.02;8.43;;;;;;;17.56;35.14;101215.16;4410876;32;34362;-61
2022/03/27 10:07:26;;;;;;;13.48;7.53;;;;;;;17.82;34.38;101217.06;4410775;32;33923;-61
2022/03/27 10:09:55;;;;;;;15.80;8.93;;;;;;;18.05;35.15;101211.84;4382567;32;33708;-60
2022/03/27 10:12:28;;;;;;;15.80;9.15;;;;;;;18.36;33.95;101210.34;4392002;32;34855;-61
2022/03/27 10:14:59;;;;;;;14.55;8.93;;;;;;;17.01;35.71;101212.13;4388724;32;33783;-60
2022/03/27 10:17:27;;;;;;;17.15;8.65;;;;;;;17.95;33.94;101210.59;4389644;32;34746;-61
2022/03/27 10:20:10;;;;;;;15.20;7.90;;;;;;;17.69;34.09;101206.94;4392188;32;34807;-60
2022/03/27 10:22:43;;;;;;;16.40;8.68;;;;;;;18.28;34.64;101210.06;4386829;32;35069;-61
2022/03/27 10:25:12;;;;;;;16.30;8.57;;;;;;;18.66;33.18;101211.41;4391404;32;33775;-61
2022/03/27 10:27:42;;;;;;;18.95;8.38;;;;;;;18.30;33.26;101208.38;4393024;32;33889;-61
2022/03/27 10:30:11;;;;;;;16.40;7.43;;;;;;;18.46;33.34;101215.94;4393274;32;33869;-61
2022/03/27 10:32:40;;;;;;;13.25;8.40;;;;;;;18.47;33.14;101216.84;4392941;32;34229;-61
2022/03/27 10:35:23;;;;;;;15.13;8.63;;;;;;;18.03;33.42;101198.66;4389470;32;33838;-60
2022/03/27 10:37:58;;;;;;;13.38;7.93;;;;;;;18.73;32.24;101204.62;4390217;32;34684;-61
2022/03/27 10:40:35;;;;;;;14.68;8.55;;;;;;;19.05;32.44;101203.09;4389604;32;33764;-61
2022/03/27 10:43:11;;;;;;;16.80;8.65;;;;;;;17.93;33.68;101208.78;4390454;32;34735;-61
2022/03/27 10:45:39;;;;;;;16.35;8.82;;;;;;;17.93;32.97;101212.28;4391595;32;33764;-60
2022/03/27 10:48:10;;;;;;;13.60;7.75;;;;;;;18.37;32.17;101209.47;4397240;32;33061;-61
2022/03/27 10:50:44;;;;;;;13.07;7.43;;;;;;;19.28;31.50;101213.47;4391356;32;33866;-61
2022/03/27 10:53:11;;;;;;;15.07;8.40;;;;;;;20.23;30.02;101207.56;4389380;32;32527;-61
2022/03/27 10:55:44;;;;;;;12.48;8.00;;;;;;;20.74;29.08;101201.03;4391168;32;34243;-61
2022/03/27 10:58:31;;;;;;;19.02;8.55;;;;;;;19.70;30.56;101199.87;4390456;32;32921;-62
2022/03/27 11:01:04;;;;;;;15.65;8.27;;;;;;;20.25;29.86;101191.81;4386031;32;34309;-61
2022/03/27 11:03:52;;;;;;;14.07;8.27;;;;;;;20.73;29.12;101178.22;4392069;32;35111;-61
2022/03/27 11:06:20;;;;;;;16.65;7.70;;;;;;;20.53;28.62;101180.28;4375524;32;34177;-61
2022/03/27 11:08:49;;;;;;;17.80;8.40;;;;;;;21.50;27.85;101177.41;4396829;32;33709;-61
2022/03/27 11:11:35;;;;;;;17.67;8.63;;;;;;;21.28;27.87;101179.53;4400778;32;34673;-61
2022/03/27 11:14:04;;;;;;;17.05;9.20;;;;;;;21.88;27.14;101179.97;4407741;32;33886;-61
2022/03/27 11:16:33;;;;;;;12.93;7.55;;;;;;;22.21;26.11;101174.47;4405414;32;33546;-61
2022/03/27 11:19:01;;;;;;;13.62;7.53;;;;;;;22.58;25.70;101173.44;4406581;32;33661;-61
2022/03/27 11:21:28;;;;;;;17.70;8.48;;;;;;;22.74;25.42;101168.41;4394312;32;34034;-61
2022/03/27 11:24:18;;;;;;;12.52;8.05;;;;;;;21.60;26.94;101167.09;4403470;32;34144;-61
2022/03/27 11:26:47;;;;;;;14.75;8.45;;;;;;;21.24;27.24;101177.69;4404028;32;31876;-61
2022/03/27 11:29:23;;;;;;;13.02;8.73;;;;;;;20.90;27.13;101171.63;4401029;32;33959;-61